Pride — ZDFD7 — position and weather

sailwx.info

Track history (hours):
 
Tides and Currents Weather Stations Pressure Air Temp Water Temp Dewpoint Dewpoint Depression Visibility Wind Speed Wind Dir Waves Ship Positions

Pride

Last reported at 2015-May-22 16:33 UTC. Time now 2015-May-22 17:42 UTC.
Position N 53°56' E 009°13'.

Length 88 m; draft 3.4 m.

Type: Ship. MMSI: 236166000.

Date/timePositionNaut miles runAvg speedWind from/ knotsBaromVisibWave heightAir tempDewpointWater temp
2015-May-22 16:33N 53°56' E 009°13'3 1.6
2015-May-22 14:32N 53°54' E 009°09'0 0.0
2015-May-22 13:31N 53°54' E 009°09'0 0.0
2015-May-22 12:33N 53°54' E 009°09'2 2.0
2015-May-22 11:33N 53°53' E 009°06'7 6.5
2015-May-22 10:33N 53°51' E 008°56'8 7.9
2015-May-22 09:33N 53°52' E 008°43'8 7.7
2015-May-22 08:33N 53°59' E 008°35'9 9.0
2015-May-22 07:33N 54°04' E 008°22'10 9.8
2015-May-22 06:33N 54°13' E 008°21'10 9.9
2015-May-22 05:32N 54°22' E 008°31'1210.3
2015-May-22 04:25N 54°26' E 008°50'7 7.0
2015-May-22 03:23N 54°28' E 009°01'0 0.1
2015-May-21 18:23N 54°28' E 009°02'0 0.0
2015-May-21 17:25N 54°28' E 009°02'  
Track history (hours):
 
Tides and Currents Weather Stations Pressure Air Temp Water Temp Dewpoint Dewpoint Depression Visibility Wind Speed Wind Dir Waves Ship Positions

Pride

Last reported at 2015-May-22 16:33 UTC. Time now 2015-May-22 17:42 UTC.
Position N 53°56' E 009°13'.

Length 88 m; draft 3.4 m.

Type: Ship. MMSI: 236166000.

Date/timePositionNaut miles runAvg speedWind from/ knotsBaromVisibWave heightAir tempDewpointWater temp
2015-May-22 16:33N 53°56' E 009°13'3 1.6
2015-May-22 14:32N 53°54' E 009°09'0 0.0
2015-May-22 13:31N 53°54' E 009°09'0 0.0
2015-May-22 12:33N 53°54' E 009°09'2 2.0
2015-May-22 11:33N 53°53' E 009°06'7 6.5
2015-May-22 10:33N 53°51' E 008°56'8 7.9
2015-May-22 09:33N 53°52' E 008°43'8 7.7
2015-May-22 08:33N 53°59' E 008°35'9 9.0
2015-May-22 07:33N 54°04' E 008°22'10 9.8
2015-May-22 06:33N 54°13' E 008°21'10 9.9
2015-May-22 05:32N 54°22' E 008°31'1210.3
2015-May-22 04:25N 54°26' E 008°50'7 7.0
2015-May-22 03:23N 54°28' E 009°01'0 0.1
2015-May-21 18:23N 54°28' E 009°02'0 0.0
2015-May-21 17:25N 54°28' E 009°02'  

Dump ship's entire track history